sensor_id;sensor_type;location;lat;lon;timestamp;P1;durP1;ratioP1;P2;durP2;ratioP2
10582;SDS011;33679;51.218;6.786;2023-06-01T00:01:20;3.00;;;1.93;;
10582;SDS011;33679;51.218;6.786;2023-06-01T00:03:54;4.20;;;2.50;;
10582;SDS011;33679;51.218;6.786;2023-06-01T00:06:27;4.20;;;2.27;;
10582;SDS011;33679;51.218;6.786;2023-06-01T00:09:00;4.83;;;2.57;;
10582;SDS011;33679;51.218;6.786;2023-06-01T00:11:34;4.80;;;2.00;;
10582;SDS011;33679;51.218;6.786;2023-06-01T00:14:08;3.00;;;2.17;;
10582;SDS011;33679;51.218;6.786;2023-06-01T00:16:40;4.93;;;2.67;;
10582;SDS011;33679;51.218;6.786;2023-06-01T00:19:13;11.30;;;2.10;;
10582;SDS011;33679;51.218;6.786;2023-06-01T00:21:46;5.20;;;2.37;;
10582;SDS011;33679;51.218;6.786;2023-06-01T00:24:19;3.30;;;1.97;;
10582;SDS011;33679;51.218;6.786;2023-06-01T00:26:52;3.67;;;1.90;;
10582;SDS011;33679;51.218;6.786;2023-06-01T00:29:26;3.83;;;2.37;;
10582;SDS011;33679;51.218;6.786;2023-06-01T00:31:58;3.23;;;2.40;;
10582;SDS011;33679;51.218;6.786;2023-06-01T00:34:31;2.87;;;2.57;;
10582;SDS011;33679;51.218;6.786;2023-06-01T00:37:14;4.67;;;2.00;;
10582;SDS011;33679;51.218;6.786;2023-06-01T00:39:47;6.30;;;2.37;;
10582;SDS011;33679;51.218;6.786;2023-06-01T00:42:19;4.93;;;2.40;;
10582;SDS011;33679;51.218;6.786;2023-06-01T00:44:54;7.73;;;2.83;;
10582;SDS011;33679;51.218;6.786;2023-06-01T00:47:26;4.77;;;2.20;;
10582;SDS011;33679;51.218;6.786;2023-06-01T00:49:58;4.87;;;2.50;;
10582;SDS011;33679;51.218;6.786;2023-06-01T00:52:32;7.20;;;2.53;;
10582;SDS011;33679;51.218;6.786;2023-06-01T00:55:04;7.13;;;2.80;;
10582;SDS011;33679;51.218;6.786;2023-06-01T00:57:37;3.20;;;2.50;;
10582;SDS011;33679;51.218;6.786;2023-06-01T01:00:14;5.60;;;3.03;;
10582;SDS011;33679;51.218;6.786;2023-06-01T01:02:47;6.33;;;3.50;;
10582;SDS011;33679;51.218;6.786;2023-06-01T01:05:22;7.00;;;3.30;;
10582;SDS011;33679;51.218;6.786;2023-06-01T01:08:00;6.00;;;2.97;;
10582;SDS011;33679;51.218;6.786;2023-06-01T01:10:39;5.20;;;2.83;;
10582;SDS011;33679;51.218;6.786;2023-06-01T01:13:16;4.70;;;2.67;;
10582;SDS011;33679;51.218;6.786;2023-06-01T01:15:57;6.00;;;2.70;;
10582;SDS011;33679;51.218;6.786;2023-06-01T01:18:36;5.27;;;3.23;;
10582;SDS011;33679;51.218;6.786;2023-06-01T01:21:15;4.47;;;3.20;;
10582;SDS011;33679;51.218;6.786;2023-06-01T01:24:10;5.50;;;3.27;;
10582;SDS011;33679;51.218;6.786;2023-06-01T01:27:12;6.00;;;3.60;;
10582;SDS011;33679;51.218;6.786;2023-06-01T01:29:57;5.47;;;3.67;;
10582;SDS011;33679;51.218;6.786;2023-06-01T01:32:36;7.10;;;3.43;;
10582;SDS011;33679;51.218;6.786;2023-06-01T01:35:11;7.30;;;3.60;;
10582;SDS011;33679;51.218;6.786;2023-06-01T01:37:49;6.47;;;3.90;;
10582;SDS011;33679;51.218;6.786;2023-06-01T01:40:22;5.37;;;3.47;;
10582;SDS011;33679;51.218;6.786;2023-06-01T01:42:55;4.73;;;3.40;;
10582;SDS011;33679;51.218;6.786;2023-06-01T01:45:29;4.67;;;3.23;;
10582;SDS011;33679;51.218;6.786;2023-06-01T01:48:03;6.40;;;3.80;;
10582;SDS011;33679;51.218;6.786;2023-06-01T01:50:47;5.57;;;3.63;;
10582;SDS011;33679;51.218;6.786;2023-06-01T01:53:28;7.00;;;2.80;;
10582;SDS011;33679;51.218;6.786;2023-06-01T01:56:03;6.40;;;3.50;;
10582;SDS011;33679;51.218;6.786;2023-06-01T01:58:36;6.33;;;3.70;;
10582;SDS011;33679;51.218;6.786;2023-06-01T02:01:12;8.07;;;3.50;;
10582;SDS011;33679;51.218;6.786;2023-06-01T02:03:45;7.93;;;4.10;;
10582;SDS011;33679;51.218;6.786;2023-06-01T02:06:20;4.43;;;3.60;;
10582;SDS011;33679;51.218;6.786;2023-06-01T02:08:53;8.00;;;4.00;;
10582;SDS011;33679;51.218;6.786;2023-06-01T02:11:27;5.77;;;3.73;;
10582;SDS011;33679;51.218;6.786;2023-06-01T02:14:00;11.47;;;4.70;;
10582;SDS011;33679;51.218;6.786;2023-06-01T02:16:34;8.03;;;4.10;;
10582;SDS011;33679;51.218;6.786;2023-06-01T02:19:06;6.40;;;3.97;;
10582;SDS011;33679;51.218;6.786;2023-06-01T02:21:41;9.03;;;4.70;;
10582;SDS011;33679;51.218;6.786;2023-06-01T02:24:20;8.20;;;4.37;;
10582;SDS011;33679;51.218;6.786;2023-06-01T02:27:01;7.77;;;4.83;;
10582;SDS011;33679;51.218;6.786;2023-06-01T02:29:34;8.60;;;4.60;;
10582;SDS011;33679;51.218;6.786;2023-06-01T02:32:08;8.27;;;4.87;;
10582;SDS011;33679;51.218;6.786;2023-06-01T02:34:42;10.00;;;4.37;;
10582;SDS011;33679;51.218;6.786;2023-06-01T02:37:16;8.60;;;4.40;;
10582;SDS011;33679;51.218;6.786;2023-06-01T02:39:48;8.03;;;5.10;;
10582;SDS011;33679;51.218;6.786;2023-06-01T02:42:20;11.40;;;5.20;;
10582;SDS011;33679;51.218;6.786;2023-06-01T02:44:56;11.10;;;5.03;;
10582;SDS011;33679;51.218;6.786;2023-06-01T02:47:30;7.57;;;4.63;;
10582;SDS011;33679;51.218;6.786;2023-06-01T02:50:02;13.43;;;4.90;;
10582;SDS011;33679;51.218;6.786;2023-06-01T02:52:38;8.87;;;5.03;;
10582;SDS011;33679;51.218;6.786;2023-06-01T02:55:12;8.60;;;4.97;;
10582;SDS011;33679;51.218;6.786;2023-06-01T02:57:55;11.60;;;5.70;;
10582;SDS011;33679;51.218;6.786;2023-06-01T03:00:28;11.30;;;5.90;;
10582;SDS011;33679;51.218;6.786;2023-06-01T03:03:02;17.90;;;7.17;;
10582;SDS011;33679;51.218;6.786;2023-06-01T03:05:35;12.60;;;5.43;;
10582;SDS011;33679;51.218;6.786;2023-06-01T03:08:31;9.87;;;5.57;;
10582;SDS011;33679;51.218;6.786;2023-06-01T03:11:09;12.80;;;6.50;;
10582;SDS011;33679;51.218;6.786;2023-06-01T03:13:42;14.27;;;5.87;;
10582;SDS011;33679;51.218;6.786;2023-06-01T03:16:15;11.53;;;6.43;;
10582;SDS011;33679;51.218;6.786;2023-06-01T03:19:06;9.17;;;4.80;;
10582;SDS011;33679;51.218;6.786;2023-06-01T03:21:51;10.63;;;5.97;;
10582;SDS011;33679;51.218;6.786;2023-06-01T03:24:27;15.30;;;6.23;;
10582;SDS011;33679;51.218;6.786;2023-06-01T03:27:03;13.13;;;6.37;;
10582;SDS011;33679;51.218;6.786;2023-06-01T03:29:40;12.10;;;6.33;;
10582;SDS011;33679;51.218;6.786;2023-06-01T03:32:13;14.20;;;7.27;;
10582;SDS011;33679;51.218;6.786;2023-06-01T03:34:48;11.83;;;6.90;;
10582;SDS011;33679;51.218;6.786;2023-06-01T03:37:20;13.13;;;6.50;;
10582;SDS011;33679;51.218;6.786;2023-06-01T03:39:53;14.03;;;6.20;;
10582;SDS011;33679;51.218;6.786;2023-06-01T03:42:29;12.13;;;7.07;;
10582;SDS011;33679;51.218;6.786;2023-06-01T03:45:01;17.57;;;8.23;;
10582;SDS011;33679;51.218;6.786;2023-06-01T03:47:37;12.90;;;6.03;;
10582;SDS011;33679;51.218;6.786;2023-06-01T03:50:12;13.33;;;6.50;;
10582;SDS011;33679;51.218;6.786;2023-06-01T03:52:44;13.70;;;6.73;;
10582;SDS011;33679;51.218;6.786;2023-06-01T03:55:17;13.27;;;7.70;;
10582;SDS011;33679;51.218;6.786;2023-06-01T03:58:02;11.10;;;6.37;;
10582;SDS011;33679;51.218;6.786;2023-06-01T04:00:36;13.80;;;6.50;;
10582;SDS011;33679;51.218;6.786;2023-06-01T04:03:10;13.70;;;7.23;;
10582;SDS011;33679;51.218;6.786;2023-06-01T04:05:46;9.70;;;5.90;;
10582;SDS011;33679;51.218;6.786;2023-06-01T04:08:20;19.17;;;7.33;;
10582;SDS011;33679;51.218;6.786;2023-06-01T04:10:54;16.33;;;8.60;;
10582;SDS011;33679;51.218;6.786;2023-06-01T04:13:26;15.10;;;8.97;;
10582;SDS011;33679;51.218;6.786;2023-06-01T04:15:59;12.67;;;8.33;;
10582;SDS011;33679;51.218;6.786;2023-06-01T04:18:32;17.90;;;8.33;;
10582;SDS011;33679;51.218;6.786;2023-06-01T04:21:08;17.30;;;8.87;;
10582;SDS011;33679;51.218;6.786;2023-06-01T04:23:41;19.30;;;8.03;;
10582;SDS011;33679;51.218;6.786;2023-06-01T04:26:16;23.97;;;9.20;;
10582;SDS011;33679;51.218;6.786;2023-06-01T04:28:49;17.87;;;8.60;;
10582;SDS011;33679;51.218;6.786;2023-06-01T04:31:21;18.67;;;10.30;;
10582;SDS011;33679;51.218;6.786;2023-06-01T04:33:55;15.27;;;9.77;;
10582;SDS011;33679;51.218;6.786;2023-06-01T04:36:34;19.67;;;9.40;;
10582;SDS011;33679;51.218;6.786;2023-06-01T04:39:13;20.60;;;10.27;;
10582;SDS011;33679;51.218;6.786;2023-06-01T04:41:48;23.27;;;9.27;;
10582;SDS011;33679;51.218;6.786;2023-06-01T04:44:22;23.83;;;9.13;;
10582;SDS011;33679;51.218;6.786;2023-06-01T04:46:55;18.50;;;9.83;;
10582;SDS011;33679;51.218;6.786;2023-06-01T04:49:34;19.07;;;9.33;;
10582;SDS011;33679;51.218;6.786;2023-06-01T04:52:09;17.50;;;10.00;;
10582;SDS011;33679;51.218;6.786;2023-06-01T04:54:45;19.30;;;8.73;;
10582;SDS011;33679;51.218;6.786;2023-06-01T04:57:19;24.80;;;9.13;;
10582;SDS011;33679;51.218;6.786;2023-06-01T04:59:53;18.83;;;9.70;;
10582;SDS011;33679;51.218;6.786;2023-06-01T05:02:29;15.83;;;9.30;;
10582;SDS011;33679;51.218;6.786;2023-06-01T05:05:01;20.57;;;11.60;;
10582;SDS011;33679;51.218;6.786;2023-06-01T05:07:39;21.10;;;10.50;;
10582;SDS011;33679;51.218;6.786;2023-06-01T05:10:14;21.77;;;10.93;;
10582;SDS011;33679;51.218;6.786;2023-06-01T05:12:49;16.33;;;9.50;;
10582;SDS011;33679;51.218;6.786;2023-06-01T05:15:22;22.50;;;11.10;;
10582;SDS011;33679;51.218;6.786;2023-06-01T05:17:55;18.70;;;11.20;;
10582;SDS011;33679;51.218;6.786;2023-06-01T05:20:30;18.43;;;9.70;;
10582;SDS011;33679;51.218;6.786;2023-06-01T05:23:05;18.97;;;11.60;;
10582;SDS011;33679;51.218;6.786;2023-06-01T05:25:38;22.03;;;13.00;;
10582;SDS011;33679;51.218;6.786;2023-06-01T05:28:10;18.07;;;11.27;;
10582;SDS011;33679;51.218;6.786;2023-06-01T05:30:44;24.87;;;11.10;;
10582;SDS011;33679;51.218;6.786;2023-06-01T05:33:19;17.77;;;11.07;;
10582;SDS011;33679;51.218;6.786;2023-06-01T05:35:54;19.80;;;10.60;;
10582;SDS011;33679;51.218;6.786;2023-06-01T05:38:31;19.27;;;10.70;;
10582;SDS011;33679;51.218;6.786;2023-06-01T05:41:04;17.23;;;11.00;;
10582;SDS011;33679;51.218;6.786;2023-06-01T05:43:37;18.97;;;10.97;;
10582;SDS011;33679;51.218;6.786;2023-06-01T05:46:11;20.17;;;11.67;;
10582;SDS011;33679;51.218;6.786;2023-06-01T05:48:43;25.03;;;12.80;;
10582;SDS011;33679;51.218;6.786;2023-06-01T05:51:18;24.17;;;13.00;;
10582;SDS011;33679;51.218;6.786;2023-06-01T05:53:52;21.27;;;11.90;;
10582;SDS011;33679;51.218;6.786;2023-06-01T05:56:25;27.03;;;13.27;;
10582;SDS011;33679;51.218;6.786;2023-06-01T05:58:58;21.97;;;12.43;;
10582;SDS011;33679;51.218;6.786;2023-06-01T06:01:34;23.23;;;12.87;;
10582;SDS011;33679;51.218;6.786;2023-06-01T06:04:09;23.03;;;12.67;;
10582;SDS011;33679;51.218;6.786;2023-06-01T06:06:42;24.93;;;12.33;;
10582;SDS011;33679;51.218;6.786;2023-06-01T06:09:16;21.63;;;13.10;;
10582;SDS011;33679;51.218;6.786;2023-06-01T06:11:51;23.33;;;12.97;;
10582;SDS011;33679;51.218;6.786;2023-06-01T06:14:24;28.17;;;13.60;;
10582;SDS011;33679;51.218;6.786;2023-06-01T06:16:58;24.90;;;12.50;;
10582;SDS011;33679;51.218;6.786;2023-06-01T06:19:30;20.37;;;11.77;;
10582;SDS011;33679;51.218;6.786;2023-06-01T06:22:03;23.57;;;13.97;;
10582;SDS011;33679;51.218;6.786;2023-06-01T06:24:38;24.20;;;12.90;;
10582;SDS011;33679;51.218;6.786;2023-06-01T06:27:11;22.70;;;12.53;;
10582;SDS011;33679;51.218;6.786;2023-06-01T06:29:46;23.33;;;11.50;;
10582;SDS011;33679;51.218;6.786;2023-06-01T06:32:18;20.70;;;11.47;;
10582;SDS011;33679;51.218;6.786;2023-06-01T06:34:52;18.83;;;11.00;;
10582;SDS011;33679;51.218;6.786;2023-06-01T06:37:24;26.10;;;11.37;;
10582;SDS011;33679;51.218;6.786;2023-06-01T06:39:59;19.23;;;11.90;;
10582;SDS011;33679;51.218;6.786;2023-06-01T06:42:33;17.23;;;11.77;;
10582;SDS011;33679;51.218;6.786;2023-06-01T06:45:07;21.27;;;10.57;;
10582;SDS011;33679;51.218;6.786;2023-06-01T06:47:39;18.90;;;11.33;;
10582;SDS011;33679;51.218;6.786;2023-06-01T06:50:15;19.60;;;12.17;;
10582;SDS011;33679;51.218;6.786;2023-06-01T06:52:51;19.40;;;11.60;;
10582;SDS011;33679;51.218;6.786;2023-06-01T06:55:27;24.47;;;13.07;;
10582;SDS011;33679;51.218;6.786;2023-06-01T06:57:59;20.00;;;12.00;;
10582;SDS011;33679;51.218;6.786;2023-06-01T07:00:31;23.53;;;13.27;;
10582;SDS011;33679;51.218;6.786;2023-06-01T07:03:04;21.10;;;12.70;;
10582;SDS011;33679;51.218;6.786;2023-06-01T07:05:38;31.73;;;13.03;;
10582;SDS011;33679;51.218;6.786;2023-06-01T07:08:10;22.10;;;12.70;;
10582;SDS011;33679;51.218;6.786;2023-06-01T07:10:44;26.10;;;13.13;;
10582;SDS011;33679;51.218;6.786;2023-06-01T07:13:17;23.33;;;13.40;;
10582;SDS011;33679;51.218;6.786;2023-06-01T07:15:49;21.70;;;12.47;;
10582;SDS011;33679;51.218;6.786;2023-06-01T07:18:24;24.90;;;13.37;;
10582;SDS011;33679;51.218;6.786;2023-06-01T07:20:57;24.60;;;13.03;;
10582;SDS011;33679;51.218;6.786;2023-06-01T07:23:30;21.77;;;12.67;;
10582;SDS011;33679;51.218;6.786;2023-06-01T07:26:05;20.97;;;13.10;;
10582;SDS011;33679;51.218;6.786;2023-06-01T07:28:39;22.10;;;13.30;;
10582;SDS011;33679;51.218;6.786;2023-06-01T07:31:12;19.97;;;13.40;;
10582;SDS011;33679;51.218;6.786;2023-06-01T07:33:47;24.20;;;14.67;;
10582;SDS011;33679;51.218;6.786;2023-06-01T07:36:22;21.40;;;13.63;;
10582;SDS011;33679;51.218;6.786;2023-06-01T07:38:56;22.50;;;13.53;;
10582;SDS011;33679;51.218;6.786;2023-06-01T07:41:30;25.30;;;14.10;;
10582;SDS011;33679;51.218;6.786;2023-06-01T07:44:03;26.20;;;13.77;;
10582;SDS011;33679;51.218;6.786;2023-06-01T07:46:36;23.00;;;15.43;;
10582;SDS011;33679;51.218;6.786;2023-06-01T07:49:09;22.57;;;13.30;;
10582;SDS011;33679;51.218;6.786;2023-06-01T07:51:44;24.63;;;14.30;;
10582;SDS011;33679;51.218;6.786;2023-06-01T07:54:17;20.00;;;12.33;;
10582;SDS011;33679;51.218;6.786;2023-06-01T07:56:51;26.07;;;14.53;;
10582;SDS011;33679;51.218;6.786;2023-06-01T07:59:24;20.17;;;13.20;;
10582;SDS011;33679;51.218;6.786;2023-06-01T08:02:01;20.07;;;12.67;;
10582;SDS011;33679;51.218;6.786;2023-06-01T08:04:34;24.23;;;14.37;;
10582;SDS011;33679;51.218;6.786;2023-06-01T08:07:09;21.77;;;13.50;;
10582;SDS011;33679;51.218;6.786;2023-06-01T08:09:45;25.47;;;13.87;;
10582;SDS011;33679;51.218;6.786;2023-06-01T08:12:21;23.60;;;14.90;;
10582;SDS011;33679;51.218;6.786;2023-06-01T08:14:54;23.77;;;14.53;;
10582;SDS011;33679;51.218;6.786;2023-06-01T08:17:30;24.60;;;14.43;;
10582;SDS011;33679;51.218;6.786;2023-06-01T08:20:04;31.90;;;16.53;;
10582;SDS011;33679;51.218;6.786;2023-06-01T08:22:41;27.77;;;15.23;;
10582;SDS011;33679;51.218;6.786;2023-06-01T08:25:14;27.90;;;16.77;;
10582;SDS011;33679;51.218;6.786;2023-06-01T08:27:54;30.73;;;18.87;;
10582;SDS011;33679;51.218;6.786;2023-06-01T08:30:28;26.73;;;15.53;;
10582;SDS011;33679;51.218;6.786;2023-06-01T08:33:01;22.63;;;13.53;;
10582;SDS011;33679;51.218;6.786;2023-06-01T08:35:34;27.63;;;15.47;;
10582;SDS011;33679;51.218;6.786;2023-06-01T08:38:07;26.87;;;16.27;;
10582;SDS011;33679;51.218;6.786;2023-06-01T08:40:39;28.87;;;16.57;;
10582;SDS011;33679;51.218;6.786;2023-06-01T08:43:17;26.03;;;15.83;;
10582;SDS011;33679;51.218;6.786;2023-06-01T08:45:51;25.47;;;14.37;;
10582;SDS011;33679;51.218;6.786;2023-06-01T08:48:25;28.40;;;15.73;;
10582;SDS011;33679;51.218;6.786;2023-06-01T08:51:00;25.07;;;15.60;;
10582;SDS011;33679;51.218;6.786;2023-06-01T08:53:32;32.60;;;17.20;;
10582;SDS011;33679;51.218;6.786;2023-06-01T08:56:09;26.63;;;15.93;;
10582;SDS011;33679;51.218;6.786;2023-06-01T08:58:47;27.17;;;16.80;;
10582;SDS011;33679;51.218;6.786;2023-06-01T09:01:21;33.27;;;19.17;;
10582;SDS011;33679;51.218;6.786;2023-06-01T09:03:54;35.63;;;19.97;;
10582;SDS011;33679;51.218;6.786;2023-06-01T09:06:27;40.10;;;19.30;;
10582;SDS011;33679;51.218;6.786;2023-06-01T09:09:01;36.23;;;18.90;;
10582;SDS011;33679;51.218;6.786;2023-06-01T09:11:37;34.07;;;20.20;;
10582;SDS011;33679;51.218;6.786;2023-06-01T09:14:21;35.03;;;20.37;;
10582;SDS011;33679;51.218;6.786;2023-06-01T09:16:56;44.07;;;22.00;;
10582;SDS011;33679;51.218;6.786;2023-06-01T09:19:40;36.93;;;20.30;;
10582;SDS011;33679;51.218;6.786;2023-06-01T09:22:13;39.80;;;22.27;;
10582;SDS011;33679;51.218;6.786;2023-06-01T09:24:54;41.90;;;20.67;;
10582;SDS011;33679;51.218;6.786;2023-06-01T09:27:28;41.50;;;21.90;;
10582;SDS011;33679;51.218;6.786;2023-06-01T09:30:03;34.33;;;19.93;;
10582;SDS011;33679;51.218;6.786;2023-06-01T09:32:37;41.90;;;22.37;;
10582;SDS011;33679;51.218;6.786;2023-06-01T09:35:10;32.93;;;19.30;;
10582;SDS011;33679;51.218;6.786;2023-06-01T09:37:54;39.17;;;21.87;;
10582;SDS011;33679;51.218;6.786;2023-06-01T09:40:27;36.00;;;20.50;;
10582;SDS011;33679;51.218;6.786;2023-06-01T09:43:00;36.27;;;20.60;;
10582;SDS011;33679;51.218;6.786;2023-06-01T09:45:35;38.63;;;21.20;;
10582;SDS011;33679;51.218;6.786;2023-06-01T09:48:17;42.33;;;20.70;;
10582;SDS011;33679;51.218;6.786;2023-06-01T09:50:51;35.20;;;19.70;;
10582;SDS011;33679;51.218;6.786;2023-06-01T09:53:26;37.67;;;22.23;;
10582;SDS011;33679;51.218;6.786;2023-06-01T09:55:59;35.83;;;20.33;;
10582;SDS011;33679;51.218;6.786;2023-06-01T09:58:35;34.00;;;19.00;;
10582;SDS011;33679;51.218;6.786;2023-06-01T10:01:12;40.50;;;20.20;;
10582;SDS011;33679;51.218;6.786;2023-06-01T10:03:48;29.80;;;17.50;;
10582;SDS011;33679;51.218;6.786;2023-06-01T10:06:24;32.97;;;18.60;;
10582;SDS011;33679;51.218;6.786;2023-06-01T10:08:59;29.50;;;18.17;;
10582;SDS011;33679;51.218;6.786;2023-06-01T10:11:57;28.90;;;16.57;;
10582;SDS011;33679;51.218;6.786;2023-06-01T10:15:08;20.50;;;13.07;;
10582;SDS011;33679;51.218;6.786;2023-06-01T10:18:12;26.13;;;13.70;;
10582;SDS011;33679;51.218;6.786;2023-06-01T10:20:49;28.27;;;15.60;;
10582;SDS011;33679;51.218;6.786;2023-06-01T10:23:22;24.80;;;15.97;;
10582;SDS011;33679;51.218;6.786;2023-06-01T10:26:05;20.37;;;13.07;;
10582;SDS011;33679;51.218;6.786;2023-06-01T10:28:49;24.37;;;15.43;;
10582;SDS011;33679;51.218;6.786;2023-06-01T10:31:32;23.50;;;13.60;;
10582;SDS011;33679;51.218;6.786;2023-06-01T10:34:10;19.50;;;10.47;;
10582;SDS011;33679;51.218;6.786;2023-06-01T10:39:44;19.63;;;11.13;;
10582;SDS011;33679;51.218;6.786;2023-06-01T10:48:09;19.40;;;9.57;;
10582;SDS011;33679;51.218;6.786;2023-06-01T10:50:44;17.23;;;9.20;;
10582;SDS011;33679;51.218;6.786;2023-06-01T10:53:50;15.53;;;8.90;;
10582;SDS011;33679;51.218;6.786;2023-06-01T10:56:24;20.83;;;9.73;;
10582;SDS011;33679;51.218;6.786;2023-06-01T10:59:10;15.50;;;8.60;;
10582;SDS011;33679;51.218;6.786;2023-06-01T11:01:53;17.87;;;10.47;;
10582;SDS011;33679;51.218;6.786;2023-06-01T11:04:39;16.93;;;9.17;;
10582;SDS011;33679;51.218;6.786;2023-06-01T11:10:10;16.00;;;7.50;;
10582;SDS011;33679;51.218;6.786;2023-06-01T11:13:10;16.23;;;7.73;;
10582;SDS011;33679;51.218;6.786;2023-06-01T11:18:54;11.93;;;7.63;;
10582;SDS011;33679;51.218;6.786;2023-06-01T11:21:30;15.03;;;7.53;;
10582;SDS011;33679;51.218;6.786;2023-06-01T11:27:09;19.50;;;7.57;;
10582;SDS011;33679;51.218;6.786;2023-06-01T11:29:46;16.33;;;7.50;;
10582;SDS011;33679;51.218;6.786;2023-06-01T11:32:23;18.60;;;7.90;;
10582;SDS011;33679;51.218;6.786;2023-06-01T11:34:59;12.30;;;6.00;;
10582;SDS011;33679;51.218;6.786;2023-06-01T11:37:46;16.10;;;7.23;;
10582;SDS011;33679;51.218;6.786;2023-06-01T11:40:27;17.00;;;7.67;;
10582;SDS011;33679;51.218;6.786;2023-06-01T11:43:03;12.70;;;7.37;;
10582;SDS011;33679;51.218;6.786;2023-06-01T11:48:37;13.33;;;7.40;;
10582;SDS011;33679;51.218;6.786;2023-06-01T11:51:16;14.23;;;7.27;;
10582;SDS011;33679;51.218;6.786;2023-06-01T11:54:00;15.83;;;7.90;;
10582;SDS011;33679;51.218;6.786;2023-06-01T11:56:35;18.63;;;7.60;;
10582;SDS011;33679;51.218;6.786;2023-06-01T11:59:10;14.30;;;7.27;;
10582;SDS011;33679;51.218;6.786;2023-06-01T12:01:44;21.33;;;7.60;;
10582;SDS011;33679;51.218;6.786;2023-06-01T12:04:20;17.93;;;6.80;;
10582;SDS011;33679;51.218;6.786;2023-06-01T12:07:05;11.00;;;6.30;;
10582;SDS011;33679;51.218;6.786;2023-06-01T12:09:53;12.37;;;6.77;;
10582;SDS011;33679;51.218;6.786;2023-06-01T12:12:28;12.97;;;7.30;;
10582;SDS011;33679;51.218;6.786;2023-06-01T12:15:08;10.67;;;6.80;;
10582;SDS011;33679;51.218;6.786;2023-06-01T12:17:48;13.10;;;7.17;;
10582;SDS011;33679;51.218;6.786;2023-06-01T12:20:43;17.70;;;7.47;;
10582;SDS011;33679;51.218;6.786;2023-06-01T12:23:17;17.90;;;7.00;;
10582;SDS011;33679;51.218;6.786;2023-06-01T12:25:52;9.97;;;6.50;;
10582;SDS011;33679;51.218;6.786;2023-06-01T12:28:27;19.37;;;6.80;;
10582;SDS011;33679;51.218;6.786;2023-06-01T12:31:09;11.77;;;6.70;;
10582;SDS011;33679;51.218;6.786;2023-06-01T12:33:43;14.50;;;7.40;;
10582;SDS011;33679;51.218;6.786;2023-06-01T12:36:28;10.17;;;5.97;;
10582;SDS011;33679;51.218;6.786;2023-06-01T12:39:03;8.17;;;5.20;;
10582;SDS011;33679;51.218;6.786;2023-06-01T12:41:46;14.07;;;7.37;;
10582;SDS011;33679;51.218;6.786;2023-06-01T12:44:33;9.60;;;6.20;;
10582;SDS011;33679;51.218;6.786;2023-06-01T12:47:06;13.23;;;6.70;;
10582;SDS011;33679;51.218;6.786;2023-06-01T12:49:39;8.33;;;5.83;;
10582;SDS011;33679;51.218;6.786;2023-06-01T12:52:13;10.23;;;5.40;;
10582;SDS011;33679;51.218;6.786;2023-06-01T12:54:46;14.30;;;5.23;;
10582;SDS011;33679;51.218;6.786;2023-06-01T12:57:21;12.07;;;5.83;;
10582;SDS011;33679;51.218;6.786;2023-06-01T12:59:57;11.87;;;6.07;;
10582;SDS011;33679;51.218;6.786;2023-06-01T13:02:30;14.63;;;6.17;;
10582;SDS011;33679;51.218;6.786;2023-06-01T13:05:04;15.23;;;7.13;;
10582;SDS011;33679;51.218;6.786;2023-06-01T13:07:39;12.73;;;7.10;;
10582;SDS011;33679;51.218;6.786;2023-06-01T13:10:11;15.63;;;7.00;;
10582;SDS011;33679;51.218;6.786;2023-06-01T13:12:44;9.60;;;6.10;;
10582;SDS011;33679;51.218;6.786;2023-06-01T13:15:18;11.00;;;6.40;;
10582;SDS011;33679;51.218;6.786;2023-06-01T13:17:52;15.50;;;7.13;;
10582;SDS011;33679;51.218;6.786;2023-06-01T13:20:26;11.13;;;7.03;;
10582;SDS011;33679;51.218;6.786;2023-06-01T13:22:59;10.90;;;6.60;;
10582;SDS011;33679;51.218;6.786;2023-06-01T13:25:32;12.60;;;6.63;;
10582;SDS011;33679;51.218;6.786;2023-06-01T13:28:05;18.90;;;8.20;;
10582;SDS011;33679;51.218;6.786;2023-06-01T13:30:39;13.73;;;6.97;;
10582;SDS011;33679;51.218;6.786;2023-06-01T13:33:12;13.70;;;7.67;;
10582;SDS011;33679;51.218;6.786;2023-06-01T13:35:45;9.27;;;6.50;;
10582;SDS011;33679;51.218;6.786;2023-06-01T13:38:19;11.27;;;6.73;;
10582;SDS011;33679;51.218;6.786;2023-06-01T13:40:54;10.47;;;6.77;;
10582;SDS011;33679;51.218;6.786;2023-06-01T13:43:28;10.63;;;6.73;;
10582;SDS011;33679;51.218;6.786;2023-06-01T13:46:03;12.17;;;7.10;;
10582;SDS011;33679;51.218;6.786;2023-06-01T13:48:39;11.47;;;6.80;;
10582;SDS011;33679;51.218;6.786;2023-06-01T13:51:11;9.07;;;5.80;;
10582;SDS011;33679;51.218;6.786;2023-06-01T13:53:45;9.83;;;5.93;;
10582;SDS011;33679;51.218;6.786;2023-06-01T13:56:18;15.93;;;6.80;;
10582;SDS011;33679;51.218;6.786;2023-06-01T13:58:53;14.03;;;6.10;;
10582;SDS011;33679;51.218;6.786;2023-06-01T14:01:27;14.93;;;7.30;;
10582;SDS011;33679;51.218;6.786;2023-06-01T14:04:00;12.03;;;7.07;;
10582;SDS011;33679;51.218;6.786;2023-06-01T14:06:34;14.90;;;8.33;;
10582;SDS011;33679;51.218;6.786;2023-06-01T14:09:06;11.03;;;6.07;;
10582;SDS011;33679;51.218;6.786;2023-06-01T14:11:44;11.70;;;6.30;;
10582;SDS011;33679;51.218;6.786;2023-06-01T14:14:17;11.27;;;5.03;;
10582;SDS011;33679;51.218;6.786;2023-06-01T14:16:53;10.80;;;6.03;;
10582;SDS011;33679;51.218;6.786;2023-06-01T14:19:26;8.90;;;5.17;;
10582;SDS011;33679;51.218;6.786;2023-06-01T14:22:00;8.77;;;5.93;;
10582;SDS011;33679;51.218;6.786;2023-06-01T14:24:33;13.60;;;6.07;;
10582;SDS011;33679;51.218;6.786;2023-06-01T14:27:06;10.17;;;5.70;;
10582;SDS011;33679;51.218;6.786;2023-06-01T14:29:39;20.50;;;12.30;;
10582;SDS011;33679;51.218;6.786;2023-06-01T14:32:13;13.07;;;6.90;;
10582;SDS011;33679;51.218;6.786;2023-06-01T14:34:48;15.43;;;7.33;;
10582;SDS011;33679;51.218;6.786;2023-06-01T14:37:20;8.43;;;5.27;;
10582;SDS011;33679;51.218;6.786;2023-06-01T14:39:55;8.87;;;5.17;;
10582;SDS011;33679;51.218;6.786;2023-06-01T14:42:29;10.57;;;5.30;;
10582;SDS011;33679;51.218;6.786;2023-06-01T14:45:01;9.30;;;5.00;;
10582;SDS011;33679;51.218;6.786;2023-06-01T14:47:37;10.20;;;6.70;;
10582;SDS011;33679;51.218;6.786;2023-06-01T14:50:11;9.27;;;6.07;;
10582;SDS011;33679;51.218;6.786;2023-06-01T14:52:44;10.70;;;6.60;;
10582;SDS011;33679;51.218;6.786;2023-06-01T14:55:16;11.30;;;6.40;;
10582;SDS011;33679;51.218;6.786;2023-06-01T14:57:53;8.90;;;5.67;;
10582;SDS011;33679;51.218;6.786;2023-06-01T15:00:26;10.10;;;5.33;;
10582;SDS011;33679;51.218;6.786;2023-06-01T15:03:02;10.43;;;5.40;;
10582;SDS011;33679;51.218;6.786;2023-06-01T15:05:40;11.27;;;5.93;;
10582;SDS011;33679;51.218;6.786;2023-06-01T15:08:12;10.23;;;5.40;;
10582;SDS011;33679;51.218;6.786;2023-06-01T15:10:45;10.80;;;5.47;;
10582;SDS011;33679;51.218;6.786;2023-06-01T15:13:18;20.20;;;11.37;;
10582;SDS011;33679;51.218;6.786;2023-06-01T15:15:52;10.93;;;5.97;;
10582;SDS011;33679;51.218;6.786;2023-06-01T15:18:28;11.20;;;5.87;;
10582;SDS011;33679;51.218;6.786;2023-06-01T15:21:04;10.37;;;5.70;;
10582;SDS011;33679;51.218;6.786;2023-06-01T15:23:37;13.30;;;6.40;;
10582;SDS011;33679;51.218;6.786;2023-06-01T15:26:10;12.10;;;7.30;;
10582;SDS011;33679;51.218;6.786;2023-06-01T15:28:51;9.67;;;3.93;;
10582;SDS011;33679;51.218;6.786;2023-06-01T15:31:44;7.50;;;4.70;;
10582;SDS011;33679;51.218;6.786;2023-06-01T15:34:20;9.87;;;5.27;;
10582;SDS011;33679;51.218;6.786;2023-06-01T15:36:58;9.10;;;4.80;;
10582;SDS011;33679;51.218;6.786;2023-06-01T15:39:30;7.20;;;4.87;;
10582;SDS011;33679;51.218;6.786;2023-06-01T15:42:06;8.30;;;5.10;;
10582;SDS011;33679;51.218;6.786;2023-06-01T15:44:58;12.20;;;4.60;;